Time;durP1;ratioP1;P1;durP2;ratioP2;P2;SDS_P1;SDS_P2;PMS_P1;PMS_P2;Temp;Humidity;BMP_temperature;BMP_pressure;BME280_temperature;BME280_humidity;BME280_pressure;Samples;Min_cycle;Max_cycle;Signal;HPM_P1;HPM_P2
2022/12/10 00:01:50;;;;;;;;;76.00;55.75;;;;;;;;5058025;28;45497;-87
2022/12/10 00:04:16;;;;;;;;;72.25;54.00;;;;;;;;5057584;28;44800;-86
2022/12/10 00:06:42;;;;;;;;;73.50;55.75;;;;;;;;5059591;28;45510;-85
2022/12/10 00:09:11;;;;;;;;;67.75;54.25;;;;;;;;5055735;28;46163;-86
2022/12/10 00:11:37;;;;;;;;;74.25;55.75;;;;;;;;5065440;28;45369;-85
2022/12/10 00:14:02;;;;;;;;;67.25;50.50;;;;;;;;5046487;28;45519;-87
2022/12/10 00:16:28;;;;;;;;;66.50;52.50;;;;;;;;5063851;28;45582;-87
2022/12/10 00:18:54;;;;;;;;;62.75;51.25;;;;;;;;5045587;28;46380;-87
2022/12/10 00:21:21;;;;;;;;;71.25;56.00;;;;;;;;5060535;28;46866;-86
2022/12/10 00:23:48;;;;;;;;;68.75;54.00;;;;;;;;5050277;28;44726;-86
2022/12/10 00:26:20;;;;;;;;;68.25;52.25;;;;;;;;5063653;28;45394;-85
2022/12/10 00:28:46;;;;;;;;;71.25;53.50;;;;;;;;5045162;28;45320;-85
2022/12/10 00:31:13;;;;;;;;;71.50;55.00;;;;;;;;5045181;28;46691;-85
2022/12/10 00:33:40;;;;;;;;;71.00;52.75;;;;;;;;5041575;28;45490;-86
2022/12/10 00:36:08;;;;;;;;;71.00;51.50;;;;;;;;5056580;28;45385;-86
2022/12/10 00:38:34;;;;;;;;;60.25;50.25;;;;;;;;5050532;28;45617;-86
2022/12/10 00:41:00;;;;;;;;;65.75;50.50;;;;;;;;5066903;28;46075;-87
2022/12/10 00:43:26;;;;;;;;;65.75;52.75;;;;;;;;5058713;28;45366;-87
2022/12/10 00:45:52;;;;;;;;;66.50;52.00;;;;;;;;5047140;28;46060;-85
2022/12/10 00:48:18;;;;;;;;;66.75;53.00;;;;;;;;5046571;28;45175;-85
2022/12/10 00:50:43;;;;;;;;;71.50;52.50;;;;;;;;5045659;28;47422;-85
2022/12/10 00:53:09;;;;;;;;;62.25;50.00;;;;;;;;5064318;28;45378;-86
2022/12/10 00:55:38;;;;;;;;;67.25;51.50;;;;;;;;5048630;28;45391;-88
2022/12/10 00:58:03;;;;;;;;;65.25;49.50;;;;;;;;5047181;28;45802;-86
2022/12/10 01:00:29;;;;;;;;;62.75;47.25;;;;;;;;5044830;28;46587;-86
2022/12/10 01:02:55;;;;;;;;;59.25;44.25;;;;;;;;5032005;28;45355;-86
2022/12/10 01:05:23;;;;;;;;;63.25;49.25;;;;;;;;5053697;28;45825;-85
2022/12/10 01:07:53;;;;;;;;;59.50;45.75;;;;;;;;5037391;28;47194;-85
2022/12/10 01:10:18;;;;;;;;;53.00;42.00;;;;;;;;5062023;28;46375;-85
2022/12/10 01:12:45;;;;;;;;;63.50;47.75;;;;;;;;5038766;28;45911;-84
2022/12/10 01:15:20;;;;;;;;;56.50;46.25;;;;;;;;5034251;28;45932;-85
2022/12/10 01:17:45;;;;;;;;;60.75;45.50;;;;;;;;5056928;28;45492;-86
2022/12/10 01:20:12;;;;;;;;;63.50;45.25;;;;;;;;5046008;28;46818;-85
2022/12/10 01:22:37;;;;;;;;;55.00;44.75;;;;;;;;5051010;28;45382;-84
2022/12/10 01:25:03;;;;;;;;;50.00;39.00;;;;;;;;5055508;28;44781;-86
2022/12/10 01:27:29;;;;;;;;;64.25;45.75;;;;;;;;5054521;28;45531;-86
2022/12/10 01:29:54;;;;;;;;;58.00;42.50;;;;;;;;5056559;28;46240;-85
2022/12/10 01:32:19;;;;;;;;;57.00;43.75;;;;;;;;5052012;28;45239;-85
2022/12/10 01:34:45;;;;;;;;;51.75;42.25;;;;;;;;5070744;28;45381;-85
2022/12/10 01:37:10;;;;;;;;;51.50;41.75;;;;;;;;5071066;28;46241;-85
2022/12/10 01:39:36;;;;;;;;;52.75;39.25;;;;;;;;5062371;28;47295;-87
2022/12/10 01:42:02;;;;;;;;;61.00;45.25;;;;;;;;5083252;28;44972;-85
2022/12/10 01:44:28;;;;;;;;;61.75;42.00;;;;;;;;5051454;28;45604;-86
2022/12/10 01:46:55;;;;;;;;;56.25;42.50;;;;;;;;5051452;28;45705;-84
2022/12/10 01:49:25;;;;;;;;;46.75;35.75;;;;;;;;5083919;28;46474;-85
2022/12/10 01:51:52;;;;;;;;;50.50;38.75;;;;;;;;5051765;28;45718;-85
2022/12/10 01:54:28;;;;;;;;;54.75;41.50;;;;;;;;5046708;28;45483;-85
2022/12/10 01:57:01;;;;;;;;;32.75;28.50;;;;;;;;5055493;28;45463;-86
2022/12/10 01:59:28;;;;;;;;;50.25;41.25;;;;;;;;5062634;28;46643;-87
2022/12/10 02:02:12;;;;;;;;;52.75;40.25;;;;;;;;5045943;28;45359;-88
2022/12/10 02:04:41;;;;;;;;;53.50;39.25;;;;;;;;5045365;28;45928;-85
2022/12/10 02:07:13;;;;;;;;;47.25;38.75;;;;;;;;5047101;28;45781;-85
2022/12/10 02:09:50;;;;;;;;;56.50;44.75;;;;;;;;5065124;28;45783;-86
2022/12/10 02:12:24;;;;;;;;;55.75;42.50;;;;;;;;5080496;28;45402;-85
2022/12/10 02:14:56;;;;;;;;;59.75;42.75;;;;;;;;5057751;28;45446;-85
2022/12/10 02:17:32;;;;;;;;;55.00;43.25;;;;;;;;5047071;28;45306;-85
2022/12/10 02:20:03;;;;;;;;;58.75;43.50;;;;;;;;5033566;28;47299;-84
2022/12/10 02:22:31;;;;;;;;;57.75;43.00;;;;;;;;5063497;28;45689;-86
2022/12/10 02:24:57;;;;;;;;;51.75;39.50;;;;;;;;5058608;28;45426;-86
2022/12/10 02:27:44;;;;;;;;;48.25;38.50;;;;;;;;5063051;28;45421;-86
2022/12/10 02:30:10;;;;;;;;;56.00;42.25;;;;;;;;5041031;28;45766;-84
2022/12/10 02:32:37;;;;;;;;;53.00;41.25;;;;;;;;5046133;28;45562;-85
2022/12/10 02:35:09;;;;;;;;;29.50;20.25;;;;;;;;5066887;28;45645;-84
2022/12/10 02:37:37;;;;;;;;;54.75;40.50;;;;;;;;5052614;28;45947;-84
2022/12/10 02:40:06;;;;;;;;;51.75;40.75;;;;;;;;5062475;28;46018;-86
2022/12/10 02:42:34;;;;;;;;;55.00;43.25;;;;;;;;5081095;28;45019;-86
2022/12/10 02:45:00;;;;;;;;;52.75;41.50;;;;;;;;5069994;28;44863;-84
2022/12/10 02:47:26;;;;;;;;;62.25;44.00;;;;;;;;5072589;28;45834;-85
2022/12/10 02:49:53;;;;;;;;;47.75;38.25;;;;;;;;5066590;28;45536;-84
2022/12/10 02:52:19;;;;;;;;;45.25;36.50;;;;;;;;5073124;28;45412;-86
2022/12/10 02:54:45;;;;;;;;;49.00;41.00;;;;;;;;5062860;28;45208;-86
2022/12/10 02:57:30;;;;;;;;;54.00;38.75;;;;;;;;5064448;28;45419;-88
2022/12/10 03:00:07;;;;;;;;;52.75;41.00;;;;;;;;5073283;28;45048;-86
2022/12/10 03:02:39;;;;;;;;;47.25;38.00;;;;;;;;5059120;28;45635;-85
2022/12/10 03:05:31;;;;;;;;;55.50;38.25;;;;;;;;5081142;27;45311;-86
2022/12/10 03:08:15;;;;;;;;;53.75;37.50;;;;;;;;5057572;28;45882;-86
2022/12/10 03:10:45;;;;;;;;;45.00;36.25;;;;;;;;5077371;28;45490;-86
2022/12/10 03:13:12;;;;;;;;;50.25;37.75;;;;;;;;5052574;28;44885;-85
2022/12/10 03:15:40;;;;;;;;;50.00;37.00;;;;;;;;5044270;28;45353;-86
2022/12/10 03:18:07;;;;;;;;;54.50;38.50;;;;;;;;5059309;28;45606;-85
2022/12/10 03:20:35;;;;;;;;;45.75;35.00;;;;;;;;5035116;28;47092;-86
2022/12/10 03:23:01;;;;;;;;;45.50;35.25;;;;;;;;5061748;28;44805;-85
2022/12/10 03:25:29;;;;;;;;;42.75;34.75;;;;;;;;5052282;28;45399;-86
2022/12/10 03:27:58;;;;;;;;;48.00;38.00;;;;;;;;5038614;28;45886;-86
2022/12/10 03:30:24;;;;;;;;;47.75;36.50;;;;;;;;5058213;28;46337;-85
2022/12/10 03:32:50;;;;;;;;;39.50;31.50;;;;;;;;5038909;28;45462;-83
2022/12/10 03:35:16;;;;;;;;;45.50;34.25;;;;;;;;5067749;28;45584;-86
2022/12/10 03:37:42;;;;;;;;;36.75;33.75;;;;;;;;5045979;28;46425;-84
2022/12/10 03:40:08;;;;;;;;;49.50;34.50;;;;;;;;5069490;28;45200;-85
2022/12/10 03:42:37;;;;;;;;;41.25;34.00;;;;;;;;5076406;28;44852;-86
2022/12/10 03:45:02;;;;;;;;;47.25;37.75;;;;;;;;5051199;28;45408;-86
2022/12/10 03:47:28;;;;;;;;;36.75;30.75;;;;;;;;5059774;28;45328;-84
2022/12/10 03:49:53;;;;;;;;;50.75;36.75;;;;;;;;5062025;28;45290;-84
2022/12/10 03:52:19;;;;;;;;;43.75;35.00;;;;;;;;5062152;28;45249;-85
2022/12/10 03:54:48;;;;;;;;;48.75;36.50;;;;;;;;5043708;28;45297;-86
2022/12/10 03:57:14;;;;;;;;;38.75;31.75;;;;;;;;5044155;28;45657;-85
2022/12/10 03:59:40;;;;;;;;;37.75;34.25;;;;;;;;5042722;28;46780;-85
2022/12/10 04:02:06;;;;;;;;;44.25;33.75;;;;;;;;5043211;28;45495;-86
2022/12/10 04:04:31;;;;;;;;;37.75;30.50;;;;;;;;5044913;28;45333;-86
2022/12/10 04:06:57;;;;;;;;;35.50;30.00;;;;;;;;5062757;28;45803;-82
2022/12/10 04:09:23;;;;;;;;;37.00;34.75;;;;;;;;5043385;28;46846;-85
2022/12/10 04:11:48;;;;;;;;;30.75;28.00;;;;;;;;5060791;28;45364;-85
2022/12/10 04:17:00;;;;;;;;;46.00;33.75;;;;;;;;5057073;28;45420;-84
2022/12/10 04:19:28;;;;;;;;;33.75;27.50;;;;;;;;5056432;28;45633;-83
2022/12/10 04:27:25;;;;;;;;;36.75;29.50;;;;;;;;5058988;28;45808;-86
2022/12/10 04:29:51;;;;;;;;;32.00;26.75;;;;;;;;5056912;28;45654;-85
2022/12/10 04:32:18;;;;;;;;;27.50;23.75;;;;;;;;5049895;28;45668;-85
2022/12/10 04:34:43;;;;;;;;;42.25;27.25;;;;;;;;5066625;28;45359;-84
2022/12/10 04:37:10;;;;;;;;;35.25;29.50;;;;;;;;5052622;28;45422;-83
2022/12/10 04:39:36;;;;;;;;;34.75;30.75;;;;;;;;5042844;28;47608;-85
2022/12/10 04:42:02;;;;;;;;;34.75;27.25;;;;;;;;5059759;28;45695;-82
2022/12/10 04:44:28;;;;;;;;;34.75;27.75;;;;;;;;5037403;28;45746;-85
2022/12/10 04:46:54;;;;;;;;;34.25;29.25;;;;;;;;5044045;28;45413;-84
2022/12/10 04:49:21;;;;;;;;;34.00;31.00;;;;;;;;5050094;28;45692;-86
2022/12/10 04:51:47;;;;;;;;;23.75;20.75;;;;;;;;5052751;28;45976;-85
2022/12/10 04:54:13;;;;;;;;;36.00;33.00;;;;;;;;5044438;28;45367;-87
2022/12/10 04:56:39;;;;;;;;;44.75;36.75;;;;;;;;5043091;28;45817;-82
2022/12/10 04:59:05;;;;;;;;;36.25;29.50;;;;;;;;5049155;28;46826;-81
2022/12/10 05:01:30;;;;;;;;;35.25;31.25;;;;;;;;5066990;28;45441;-84
2022/12/10 05:03:59;;;;;;;;;33.25;28.75;;;;;;;;5066501;28;45659;-81
2022/12/10 05:06:25;;;;;;;;;35.50;31.00;;;;;;;;5065820;28;45688;-81
2022/12/10 05:08:50;;;;;;;;;32.33;29.00;;;;;;;;5062553;28;45978;-81
2022/12/10 05:11:17;;;;;;;;;27.75;27.75;;;;;;;;5062051;28;45656;-82
2022/12/10 05:13:43;;;;;;;;;38.33;29.67;;;;;;;;5052404;28;45594;-84
2022/12/10 05:16:09;;;;;;;;;33.50;24.50;;;;;;;;5067794;28;45399;-82
2022/12/10 05:18:35;;;;;;;;;35.33;26.67;;;;;;;;5068808;28;45464;-82
2022/12/10 05:21:04;;;;;;;;;21.25;18.75;;;;;;;;5075649;28;45700;-81
2022/12/10 05:23:33;;;;;;;;;37.50;27.00;;;;;;;;5074750;28;45434;-83
2022/12/10 05:25:58;;;;;;;;;25.25;24.00;;;;;;;;5078375;28;45345;-82
2022/12/10 05:28:24;;;;;;;;;29.00;27.00;;;;;;;;5081347;28;46453;-83
2022/12/10 05:30:51;;;;;;;;;29.75;25.25;;;;;;;;5077783;28;44737;-84
2022/12/10 05:33:17;;;;;;;;;36.50;29.00;;;;;;;;5064877;28;45127;-85
2022/12/10 05:35:42;;;;;;;;;33.67;27.00;;;;;;;;5074037;28;45189;-84
2022/12/10 05:38:07;;;;;;;;;22.50;21.75;;;;;;;;5073795;28;45392;-83
2022/12/10 05:40:37;;;;;;;;;25.00;19.00;;;;;;;;5072681;28;44821;-85
2022/12/10 05:43:02;;;;;;;;;23.33;21.67;;;;;;;;5058321;28;45533;-84
2022/12/10 05:45:28;;;;;;;;;26.00;22.00;;;;;;;;5059348;28;45599;-82
2022/12/10 05:47:53;;;;;;;;;23.00;20.67;;;;;;;;5054330;28;46865;-81
2022/12/10 05:50:18;;;;;;;;;25.33;18.33;;;;;;;;5069956;28;44776;-83
2022/12/10 05:52:44;;;;;;;;;30.00;20.75;;;;;;;;5077471;28;45195;-83
2022/12/10 05:55:09;;;;;;;;;26.75;22.50;;;;;;;;5069028;28;45469;-83
2022/12/10 05:57:37;;;;;;;;;23.33;18.67;;;;;;;;5072507;28;45959;-82
2022/12/10 06:00:04;;;;;;;;;22.67;21.33;;;;;;;;5064895;28;44841;-82
2022/12/10 06:02:31;;;;;;;;;26.33;21.67;;;;;;;;5068592;28;44943;-80
2022/12/10 06:04:57;;;;;;;;;23.33;17.00;;;;;;;;5043999;28;45901;-81
2022/12/10 06:07:22;;;;;;;;;24.00;20.33;;;;;;;;5056662;28;45786;-79
2022/12/10 06:09:49;;;;;;;;;22.67;18.00;;;;;;;;5049555;28;45678;-82
2022/12/10 06:12:14;;;;;;;;;23.00;17.67;;;;;;;;5061424;28;44815;-83
2022/12/10 06:14:40;;;;;;;;;20.00;17.67;;;;;;;;5068126;28;45261;-81
2022/12/10 06:17:05;;;;;;;;;27.00;21.00;;;;;;;;5060337;28;45563;-85
2022/12/10 06:19:30;;;;;;;;;19.33;16.67;;;;;;;;5080686;28;44712;-83
2022/12/10 06:21:58;;;;;;;;;19.00;17.67;;;;;;;;5051427;28;45130;-84
2022/12/10 06:24:23;;;;;;;;;23.00;18.67;;;;;;;;5062581;28;46092;-83
2022/12/10 06:26:52;;;;;;;;;23.00;20.00;;;;;;;;5057153;28;46935;-83
2022/12/10 06:29:18;;;;;;;;;31.00;21.33;;;;;;;;5073588;28;45467;-82
2022/12/10 06:31:43;;;;;;;;;18.33;17.00;;;;;;;;5062546;28;45326;-80
2022/12/10 06:34:09;;;;;;;;;27.00;24.00;;;;;;;;5051568;28;46010;-79
2022/12/10 06:36:34;;;;;;;;;22.33;19.33;;;;;;;;5039708;28;47256;-84
2022/12/10 06:39:01;;;;;;;;;23.33;18.33;;;;;;;;5037468;28;45830;-81
2022/12/10 06:41:27;;;;;;;;;19.67;17.00;;;;;;;;5029705;28;45476;-81
2022/12/10 06:43:52;;;;;;;;;26.33;18.33;;;;;;;;5034482;28;45918;-82
2022/12/10 06:46:19;;;;;;;;;16.00;15.00;;;;;;;;5030381;28;47763;-78
2022/12/10 06:48:45;;;;;;;;;14.33;11.00;;;;;;;;5033027;28;45505;-80
2022/12/10 06:51:11;;;;;;;;;17.67;14.67;;;;;;;;5022107;28;45701;-81
2022/12/10 06:53:36;;;;;;;;;16.33;10.33;;;;;;;;5030818;28;45823;-80
2022/12/10 06:56:03;;;;;;;;;20.33;14.67;;;;;;;;5045763;28;45844;-81
2022/12/10 06:58:29;;;;;;;;;15.00;12.33;;;;;;;;5049311;28;45784;-79
2022/12/10 07:00:54;;;;;;;;;12.33;10.00;;;;;;;;5048894;28;45447;-81
2022/12/10 07:03:20;;;;;;;;;14.33;12.67;;;;;;;;5046575;28;46446;-82
2022/12/10 07:05:45;;;;;;;;;13.33;11.33;;;;;;;;5051311;28;45833;-79
2022/12/10 07:08:10;;;;;;;;;15.67;12.33;;;;;;;;5032939;28;45892;-81
2022/12/10 07:10:36;;;;;;;;;10.67;10.67;;;;;;;;5050183;28;45667;-79
2022/12/10 07:13:02;;;;;;;;;10.67;10.00;;;;;;;;5034395;28;47385;-79
2022/12/10 07:15:28;;;;;;;;;15.00;13.00;;;;;;;;5040767;28;45469;-79
2022/12/10 07:17:53;;;;;;;;;15.67;13.33;;;;;;;;5052257;28;45855;-80
2022/12/10 07:20:19;;;;;;;;;22.67;19.00;;;;;;;;5039053;28;45628;-81
2022/12/10 07:22:44;;;;;;;;;17.00;15.67;;;;;;;;5046105;28;45861;-81
2022/12/10 07:25:09;;;;;;;;;20.67;15.00;;;;;;;;5061096;28;45527;-80
2022/12/10 07:27:35;;;;;;;;;18.33;14.00;;;;;;;;5030919;28;45823;-79
2022/12/10 07:30:00;;;;;;;;;11.67;8.67;;;;;;;;5054053;28;45532;-78
2022/12/10 07:32:27;;;;;;;;;17.67;14.00;;;;;;;;5042050;28;45428;-81
2022/12/10 07:34:57;;;;;;;;;16.00;15.00;;;;;;;;5046730;28;46306;-84
2022/12/10 07:37:23;;;;;;;;;17.00;15.00;;;;;;;;5047715;28;45736;-79
2022/12/10 07:39:48;;;;;;;;;16.00;11.33;;;;;;;;5044326;28;46183;-79
2022/12/10 07:42:13;;;;;;;;;12.67;10.67;;;;;;;;5047138;28;45939;-79
2022/12/10 07:44:39;;;;;;;;;16.00;14.33;;;;;;;;5045765;28;45901;-82
2022/12/10 07:47:04;;;;;;;;;14.00;9.33;;;;;;;;5043883;28;45589;-81
2022/12/10 07:49:30;;;;;;;;;15.00;13.00;;;;;;;;5045272;28;45911;-80
2022/12/10 07:51:55;;;;;;;;;20.33;15.00;;;;;;;;5042407;28;45608;-81
2022/12/10 07:54:20;;;;;;;;;19.33;14.67;;;;;;;;5048234;28;46574;-80
2022/12/10 07:56:46;;;;;;;;;15.33;12.67;;;;;;;;5045952;28;46173;-81
2022/12/10 07:59:11;;;;;;;;;16.00;15.00;;;;;;;;5047463;28;45953;-82
2022/12/10 08:01:37;;;;;;;;;20.00;15.00;;;;;;;;5047534;28;45550;-82
2022/12/10 08:04:02;;;;;;;;;18.33;14.67;;;;;;;;5037316;28;46717;-80
2022/12/10 08:06:28;;;;;;;;;17.00;16.00;;;;;;;;5047093;28;45679;-80
2022/12/10 08:08:54;;;;;;;;;20.33;14.67;;;;;;;;5027084;28;45751;-81
2022/12/10 08:11:20;;;;;;;;;24.33;15.00;;;;;;;;5023797;28;45806;-80
2022/12/10 08:13:45;;;;;;;;;18.00;15.33;;;;;;;;5044712;28;46165;-78
2022/12/10 08:16:16;;;;;;;;;32.50;20.00;;;;;;;;5039818;28;45790;-81
2022/12/10 08:18:43;;;;;;;;;22.00;18.67;;;;;;;;5039244;28;45622;-83
2022/12/10 08:21:15;;;;;;;;;21.33;18.67;;;;;;;;5045961;28;45709;-84
2022/12/10 08:23:41;;;;;;;;;21.00;17.33;;;;;;;;5041482;28;45576;-81
2022/12/10 08:26:08;;;;;;;;;21.00;19.00;;;;;;;;5044203;28;46538;-80
2022/12/10 08:28:35;;;;;;;;;22.67;18.33;;;;;;;;5028766;28;45777;-82
2022/12/10 08:31:00;;;;;;;;;17.67;12.33;;;;;;;;5024000;28;47066;-81
2022/12/10 08:33:28;;;;;;;;;18.67;17.00;;;;;;;;5029756;28;47439;-88
2022/12/10 08:35:58;;;;;;;;;23.00;20.67;;;;;;;;5043407;28;45592;-77
2022/12/10 08:38:26;;;;;;;;;28.67;20.33;;;;;;;;5024652;28;45921;-82
2022/12/10 08:40:51;;;;;;;;;25.67;19.33;;;;;;;;5032115;28;47231;-82
2022/12/10 08:43:16;;;;;;;;;20.33;16.33;;;;;;;;5027473;28;47074;-82
2022/12/10 08:45:42;;;;;;;;;20.00;17.00;;;;;;;;5052547;28;45527;-81
2022/12/10 08:48:07;;;;;;;;;21.00;16.33;;;;;;;;5036236;28;45624;-82
2022/12/10 08:50:36;;;;;;;;;22.00;17.00;;;;;;;;5037970;28;45360;-84
2022/12/10 08:53:04;;;;;;;;;22.00;17.00;;;;;;;;5046275;28;45520;-82
2022/12/10 08:55:38;;;;;;;;;20.33;18.00;;;;;;;;5049479;28;45417;-81
2022/12/10 08:58:03;;;;;;;;;25.67;19.00;;;;;;;;5039663;28;45721;-80
2022/12/10 09:00:29;;;;;;;;;17.33;16.67;;;;;;;;5056166;28;45830;-80
2022/12/10 09:02:54;;;;;;;;;35.33;26.33;;;;;;;;5055780;28;46043;-82
2022/12/10 09:05:20;;;;;;;;;24.00;17.67;;;;;;;;5055641;28;45843;-82
2022/12/10 09:07:45;;;;;;;;;22.33;18.67;;;;;;;;5066270;28;46402;-80
2022/12/10 09:10:13;;;;;;;;;22.33;19.00;;;;;;;;5055375;28;45505;-81
2022/12/10 09:12:39;;;;;;;;;28.00;22.00;;;;;;;;5052043;28;45554;-78
2022/12/10 09:15:05;;;;;;;;;28.33;24.00;;;;;;;;5026333;28;45594;-82
2022/12/10 09:17:30;;;;;;;;;28.33;18.67;;;;;;;;5054704;28;45536;-81
2022/12/10 09:19:56;;;;;;;;;19.67;17.67;;;;;;;;5055007;28;46266;-82
2022/12/10 09:22:21;;;;;;;;;24.33;22.33;;;;;;;;5030771;28;47544;-83
2022/12/10 09:24:47;;;;;;;;;25.00;20.33;;;;;;;;5041337;28;46415;-80
2022/12/10 09:27:12;;;;;;;;;22.00;19.67;;;;;;;;5038415;28;45470;-82
2022/12/10 09:29:37;;;;;;;;;26.67;20.00;;;;;;;;5037194;28;46781;-78
2022/12/10 09:32:03;;;;;;;;;20.33;18.67;;;;;;;;5053761;28;47678;-82
2022/12/10 09:34:29;;;;;;;;;25.33;21.33;;;;;;;;5046245;28;45442;-81
2022/12/10 09:36:54;;;;;;;;;25.00;18.00;;;;;;;;5035970;28;45379;-83
2022/12/10 09:39:19;;;;;;;;;25.00;21.33;;;;;;;;5055820;28;45601;-81
2022/12/10 09:42:03;;;;;;;;;24.33;21.00;;;;;;;;5064299;28;45696;-81
2022/12/10 09:44:32;;;;;;;;;17.67;17.67;;;;;;;;5044959;28;45950;-80
2022/12/10 09:46:58;;;;;;;;;24.33;23.00;;;;;;;;5062335;28;45686;-82
2022/12/10 09:52:29;;;;;;;;;32.33;25.67;;;;;;;;5054135;28;45971;-80
2022/12/10 09:55:00;;;;;;;;;21.00;19.00;;;;;;;;5026710;28;46852;-81
2022/12/10 09:57:28;;;;;;;;;30.00;24.00;;;;;;;;5057735;28;45418;-82
2022/12/10 09:59:53;;;;;;;;;29.33;22.33;;;;;;;;5051601;28;45425;-82
2022/12/10 10:02:19;;;;;;;;;24.00;21.00;;;;;;;;5034819;28;47820;-82
2022/12/10 10:04:44;;;;;;;;;29.33;24.33;;;;;;;;5038005;28;45585;-83
2022/12/10 10:07:18;;;;;;;;;29.67;24.67;;;;;;;;5055906;28;45755;-82
2022/12/10 10:09:43;;;;;;;;;32.33;27.00;;;;;;;;5039829;28;45475;-82
2022/12/10 10:12:14;;;;;;;;;30.67;26.67;;;;;;;;5034651;28;47159;-85
2022/12/10 10:14:42;;;;;;;;;30.00;27.67;;;;;;;;5049774;28;45584;-83
2022/12/10 10:17:14;;;;;;;;;38.67;32.33;;;;;;;;5054977;28;45549;-83
2022/12/10 10:19:41;;;;;;;;;31.67;28.67;;;;;;;;5052434;28;45508;-82
2022/12/10 10:22:08;;;;;;;;;29.00;24.00;;;;;;;;5033875;28;46231;-82
2022/12/10 10:24:39;;;;;;;;;35.00;28.33;;;;;;;;5052357;28;45355;-83
2022/12/10 10:27:19;;;;;;;;;34.33;28.00;;;;;;;;5050683;28;45712;-84
2022/12/10 10:29:45;;;;;;;;;37.33;32.33;;;;;;;;5051907;28;45501;-82
2022/12/10 10:32:11;;;;;;;;;64.50;47.00;;;;;;;;5033231;28;45759;-84
2022/12/10 10:34:38;;;;;;;;;38.00;32.00;;;;;;;;5043130;28;45854;-83
2022/12/10 10:37:04;;;;;;;;;47.00;37.00;;;;;;;;5033547;28;45558;-83
2022/12/10 10:39:35;;;;;;;;;32.67;28.00;;;;;;;;5062916;28;45584;-86
2022/12/10 10:42:07;;;;;;;;;34.00;26.33;;;;;;;;5053316;28;45517;-80
2022/12/10 10:44:39;;;;;;;;;28.33;25.33;;;;;;;;5060485;28;45353;-83
2022/12/10 10:47:26;;;;;;;;;39.25;31.50;;;;;;;;5029241;28;44825;-81
2022/12/10 10:49:53;;;;;;;;;39.67;33.33;;;;;;;;5049573;28;45492;-80
2022/12/10 10:52:21;;;;;;;;;34.33;28.33;;;;;;;;5041691;28;46260;-84
2022/12/10 10:54:47;;;;;;;;;28.67;26.33;;;;;;;;5064936;28;45575;-81
2022/12/10 10:57:24;;;;;;;;;26.67;23.33;;;;;;;;5063773;28;45398;-81
2022/12/10 10:59:54;;;;;;;;;33.33;27.00;;;;;;;;5064492;28;45370;-80
2022/12/10 11:02:23;;;;;;;;;35.33;29.67;;;;;;;;5058224;28;45712;-82
2022/12/10 11:04:54;;;;;;;;;39.00;30.67;;;;;;;;5061788;28;45481;-81
2022/12/10 11:07:22;;;;;;;;;63.50;49.00;;;;;;;;5038691;28;45845;-82
2022/12/10 11:09:49;;;;;;;;;46.75;36.25;;;;;;;;5030343;28;45882;-80
2022/12/10 11:12:43;;;;;;;;;52.00;34.67;;;;;;;;5054146;28;45812;-82
2022/12/10 11:15:24;;;;;;;;;30.00;28.67;;;;;;;;5043380;28;45511;-81
2022/12/10 11:17:53;;;;;;;;;28.00;26.00;;;;;;;;5058584;28;45540;-81
2022/12/10 11:20:24;;;;;;;;;32.33;27.00;;;;;;;;5068423;27;45830;-82
2022/12/10 11:23:00;;;;;;;;;34.67;31.67;;;;;;;;5061334;28;45684;-82
2022/12/10 11:25:30;;;;;;;;;35.67;28.67;;;;;;;;5034166;28;45800;-80
2022/12/10 11:28:14;;;;;;;;;28.00;25.33;;;;;;;;5053591;28;45635;-81
2022/12/10 11:30:48;;;;;;;;;27.67;26.00;;;;;;;;5044216;28;45664;-82
2022/12/10 11:33:38;;;;;;;;;32.67;28.33;;;;;;;;5033635;28;46470;-81
2022/12/10 11:36:07;;;;;;;;;35.67;29.67;;;;;;;;5036788;28;45458;-81
2022/12/10 11:38:41;;;;;;;;;28.33;27.00;;;;;;;;5037649;28;46700;-81
2022/12/10 11:41:21;;;;;;;;;28.67;23.33;;;;;;;;5055025;28;45510;-82
2022/12/10 11:43:52;;;;;;;;;34.00;29.33;;;;;;;;5059812;28;46776;-82
2022/12/10 11:46:33;;;;;;;;;37.67;32.67;;;;;;;;5040030;28;45613;-83
2022/12/10 11:49:07;;;;;;;;;33.67;28.00;;;;;;;;5066248;28;45934;-83
2022/12/10 11:51:44;;;;;;;;;36.33;31.33;;;;;;;;5062203;28;45433;-84
2022/12/10 11:54:28;;;;;;;;;35.33;26.67;;;;;;;;5032496;28;45893;-82
2022/12/10 11:56:57;;;;;;;;;37.33;32.67;;;;;;;;5050641;28;45353;-83
2022/12/10 11:59:31;;;;;;;;;37.33;30.33;;;;;;;;5059776;28;45557;-84
2022/12/10 12:02:23;;;;;;;;;26.67;22.00;;;;;;;;5048433;28;45893;-83
2022/12/10 12:05:18;;;;;;;;;32.33;28.00;;;;;;;;5003985;28;45701;-83
2022/12/10 12:08:00;;;;;;;;;24.00;21.00;;;;;;;;5051682;28;45732;-82
2022/12/10 12:10:35;;;;;;;;;28.67;26.67;;;;;;;;5035064;28;45747;-82
2022/12/10 12:13:23;;;;;;;;;26.33;20.33;;;;;;;;5038744;28;45348;-81
2022/12/10 12:16:01;;;;;;;;;33.67;26.00;;;;;;;;5046215;28;46309;-81
2022/12/10 12:19:02;;;;;;;;;28.00;22.00;;;;;;;;5044165;28;45441;-81
2022/12/10 12:21:28;;;;;;;;;23.00;21.00;;;;;;;;5032747;28;45717;-81
2022/12/10 12:23:56;;;;;;;;;29.33;23.67;;;;;;;;5061477;28;45715;-81
2022/12/10 12:26:26;;;;;;;;;35.00;26.67;;;;;;;;5033934;28;45485;-83
2022/12/10 12:29:05;;;;;;;;;23.67;17.67;;;;;;;;5059525;28;45575;-83
2022/12/10 12:31:42;;;;;;;;;35.00;28.33;;;;;;;;5061506;28;45499;-83
2022/12/10 12:34:24;;;;;;;;;37.33;30.00;;;;;;;;5044137;28;45758;-83
2022/12/10 12:36:51;;;;;;;;;31.00;24.67;;;;;;;;5022606;28;46333;-83
2022/12/10 12:39:35;;;;;;;;;30.50;23.00;;;;;;;;5039780;28;45823;-82
2022/12/10 12:42:13;;;;;;;;;31.33;21.00;;;;;;;;5063803;28;45785;-81
2022/12/10 12:44:45;;;;;;;;;28.33;23.00;;;;;;;;5064647;28;45461;-80
2022/12/10 12:47:22;;;;;;;;;24.00;21.33;;;;;;;;5050339;28;47522;-81
2022/12/10 12:49:48;;;;;;;;;25.00;23.00;;;;;;;;5041704;28;44806;-83
2022/12/10 12:52:29;;;;;;;;;27.33;20.33;;;;;;;;5070479;28;45558;-83
2022/12/10 12:55:02;;;;;;;;;27.67;23.00;;;;;;;;5030791;28;45954;-83
2022/12/10 12:57:36;;;;;;;;;23.00;18.67;;;;;;;;5041766;28;46811;-83
2022/12/10 13:00:05;;;;;;;;;31.00;22.00;;;;;;;;5072710;28;45817;-82
2022/12/10 13:02:50;;;;;;;;;19.67;18.33;;;;;;;;5059819;28;44826;-82
2022/12/10 13:05:18;;;;;;;;;26.33;23.00;;;;;;;;5059737;28;45885;-82
2022/12/10 13:07:43;;;;;;;;;26.67;23.33;;;;;;;;5040745;28;45570;-82
2022/12/10 13:10:17;;;;;;;;;23.00;19.67;;;;;;;;5036277;28;45491;-81
2022/12/10 13:13:06;;;;;;;;;25.33;23.00;;;;;;;;5041238;28;44831;-82
2022/12/10 13:15:31;;;;;;;;;19.00;16.67;;;;;;;;5058199;28;45677;-82
2022/12/10 13:18:02;;;;;;;;;19.67;18.00;;;;;;;;5046589;28;45427;-82
2022/12/10 13:20:27;;;;;;;;;18.67;17.33;;;;;;;;5071113;28;44859;-82
2022/12/10 13:23:03;;;;;;;;;22.00;18.33;;;;;;;;5028946;28;45902;-81
2022/12/10 13:25:54;;;;;;;;;21.00;19.33;;;;;;;;5036910;28;45810;-81
2022/12/10 13:28:23;;;;;;;;;22.00;20.00;;;;;;;;5046028;28;46069;-82
2022/12/10 13:31:07;;;;;;;;;29.33;23.33;;;;;;;;5041713;28;45373;-82
2022/12/10 13:33:50;;;;;;;;;30.67;22.00;;;;;;;;5044006;28;45949;-81
2022/12/10 13:36:27;;;;;;;;;24.33;21.67;;;;;;;;5051723;28;45924;-82
2022/12/10 13:39:13;;;;;;;;;27.00;21.67;;;;;;;;5040163;28;47010;-81
2022/12/10 13:44:27;;;;;;;;;25.67;22.00;;;;;;;;5057030;28;45545;-82
2022/12/10 13:46:54;;;;;;;;;26.67;21.00;;;;;;;;5029034;28;45537;-84
2022/12/10 13:49:22;;;;;;;;;32.33;24.00;;;;;;;;5060117;28;46169;-82
2022/12/10 13:52:07;;;;;;;;;20.67;19.67;;;;;;;;5041618;28;44910;-83
2022/12/10 13:54:51;;;;;;;;;22.33;16.67;;;;;;;;5032593;28;45419;-82
2022/12/10 13:57:20;;;;;;;;;26.00;23.67;;;;;;;;5028904;28;45783;-81
2022/12/10 13:59:51;;;;;;;;;22.33;20.67;;;;;;;;5038875;28;46743;-81
2022/12/10 14:02:35;;;;;;;;;27.67;19.33;;;;;;;;5056292;28;45466;-81
2022/12/10 14:05:04;;;;;;;;;24.00;22.00;;;;;;;;5035611;28;45560;-81
2022/12/10 14:07:30;;;;;;;;;23.33;19.67;;;;;;;;5030419;28;45707;-80
2022/12/10 14:09:57;;;;;;;;;23.33;22.00;;;;;;;;5045303;28;46844;-80
2022/12/10 14:12:34;;;;;;;;;20.33;18.33;;;;;;;;5069563;28;45669;-84
2022/12/10 14:15:03;;;;;;;;;22.00;18.67;;;;;;;;5038691;28;45386;-82
2022/12/10 14:17:34;;;;;;;;;22.33;20.33;;;;;;;;5056783;28;45809;-83
2022/12/10 14:19:59;;;;;;;;;18.67;15.00;;;;;;;;5038638;28;47315;-83
2022/12/10 14:22:34;;;;;;;;;23.67;20.67;;;;;;;;5058623;28;45493;-82
2022/12/10 14:25:01;;;;;;;;;26.67;23.00;;;;;;;;5047224;28;45431;-82
2022/12/10 14:27:27;;;;;;;;;27.33;23.00;;;;;;;;5066699;28;45946;-84
2022/12/10 14:29:58;;;;;;;;;20.67;19.33;;;;;;;;5069621;28;46161;-83
2022/12/10 14:32:32;;;;;;;;;29.00;22.67;;;;;;;;5043365;28;45439;-83
2022/12/10 14:34:59;;;;;;;;;27.33;22.67;;;;;;;;5052916;28;45442;-85
2022/12/10 14:37:26;;;;;;;;;18.00;18.00;;;;;;;;5041791;28;45356;-82
2022/12/10 14:39:52;;;;;;;;;27.00;23.67;;;;;;;;5045345;28;45402;-82
2022/12/10 14:42:17;;;;;;;;;20.33;19.00;;;;;;;;5063145;28;45402;-82